Time;durP1;ratioP1;P1;durP2;ratioP2;P2;SDS_P1;SDS_P2;PMS_P1;PMS_P2;Temp;Humidity;BMP_temperature;BMP_pressure;BME280_temperature;BME280_humidity;BME280_pressure;Samples;Min_cycle;Max_cycle;Signal;HPM_P1;HPM_P2
2023/06/12 00:01:17;;;;;;;12.38;8.10;;;;;;;17.21;98.21;99444.09;4988209;28;20023;-18
2023/06/12 00:03:43;;;;;;;15.43;8.18;;;;;;;17.11;99.25;99444.13;4988249;28;20037;-19
2023/06/12 00:06:10;;;;;;;11.20;7.95;;;;;;;17.14;99.52;99443.59;4988101;28;20045;-19
2023/06/12 00:08:41;;;;;;;15.43;8.70;;;;;;;17.36;97.86;99442.38;4987449;28;20030;-19
2023/06/12 00:11:09;;;;;;;12.88;8.50;;;;;;;17.42;97.20;99443.97;4987855;28;20121;-18
2023/06/12 00:13:37;;;;;;;;;;;;;;;17.03;99.71;99450.91;4988366;28;20698;-23
2023/06/12 00:16:03;;;;;;;11.85;8.82;;;;;;;17.17;99.28;99453.81;4987960;28;19921;-18
2023/06/12 00:18:28;;;;;;;11.20;7.55;;;;;;;17.04;99.03;99449.00;4987171;28;20035;-18
2023/06/12 00:20:54;;;;;;;12.93;7.70;;;;;;;16.96;98.57;99444.19;4987986;28;20477;-18
2023/06/12 00:23:19;;;;;;;11.15;7.00;;;;;;;16.97;98.52;99443.94;4987631;28;20026;-17
2023/06/12 00:25:45;;;;;;;12.48;6.90;;;;;;;16.97;98.30;99435.06;4987671;28;20042;-18
2023/06/12 00:28:10;;;;;;;14.40;7.43;;;;;;;16.83;98.31;99443.72;4987677;28;20034;-18
2023/06/12 00:30:35;;;;;;;12.27;6.57;;;;;;;16.73;98.77;99438.34;4987825;28;20035;-18
2023/06/12 00:33:01;;;;;;;12.23;6.05;;;;;;;16.64;99.27;99440.78;4987621;28;20137;-18
2023/06/12 00:35:26;;;;;;;11.55;6.28;;;;;;;16.69;98.50;99450.72;4987676;28;20060;-18
2023/06/12 00:37:52;;;;;;;10.15;6.32;;;;;;;16.80;97.68;99457.72;4987316;28;20026;-18
2023/06/12 00:40:17;;;;;;;11.57;6.85;;;;;;;16.70;98.67;99454.25;4987572;28;20058;-18
2023/06/12 00:42:47;;;;;;;10.07;6.22;;;;;;;16.68;98.36;99447.25;4994517;28;20034;-18
2023/06/12 00:45:18;;;;;;;10.50;5.82;;;;;;;16.75;97.52;99457.72;5006977;28;20068;-18
2023/06/12 00:47:56;;;;;;;11.32;5.90;;;;;;;16.40;98.99;99440.59;5005992;28;20057;-19
2023/06/12 00:50:28;;;;;;;14.02;5.60;;;;;;;16.63;98.08;99444.56;5007100;28;20595;-19
2023/06/12 00:52:55;;;;;;;13.93;6.07;;;;;;;16.60;97.18;99450.50;5006841;28;20152;-18
2023/06/12 00:55:21;;;;;;;11.48;5.95;;;;;;;16.44;97.16;99452.41;5006922;28;20523;-18
2023/06/12 00:57:47;;;;;;;12.63;6.15;;;;;;;16.37;97.30;99451.91;5006481;28;20029;-18
2023/06/12 01:00:14;;;;;;;14.25;6.13;;;;;;;16.26;98.74;99444.91;5006815;28;20044;-20
2023/06/12 01:02:47;;;;;;;10.90;6.30;;;;;;;16.47;97.09;99451.88;5006520;28;20029;-18
2023/06/12 01:05:17;;;;;;;12.45;5.95;;;;;;;16.62;94.76;99431.38;5006486;28;20420;-19
2023/06/12 01:07:54;;;;;;;14.80;5.78;;;;;;;16.60;93.67;99444.31;5006440;28;20113;-19
2023/06/12 01:10:40;;;;;;;11.33;6.10;;;;;;;16.65;92.89;99446.97;5006507;28;20556;-20
2023/06/12 01:13:09;;;;;;;13.25;6.32;;;;;;;16.54;92.97;99429.25;5006568;28;20033;-19
2023/06/12 01:15:36;;;;;;;19.00;6.43;;;;;;;16.46;94.21;99450.25;5006466;28;20040;-19
2023/06/12 01:18:03;;;;;;;13.73;6.07;;;;;;;16.57;92.57;99445.69;5006651;28;20026;-18
2023/06/12 01:20:29;;;;;;;10.73;6.82;;;;;;;16.57;94.26;99447.53;5006495;28;20521;-19
2023/06/12 01:23:15;;;;;;;11.35;7.57;;;;;;;16.48;95.41;99453.47;5006450;28;20057;-19
2023/06/12 01:25:52;;;;;;;11.15;7.50;;;;;;;16.46;95.87;99450.25;5006372;28;20456;-18
2023/06/12 01:28:26;;;;;;;14.03;8.93;;;;;;;16.17;98.32;99447.34;5006161;28;20033;-19
2023/06/12 01:31:21;;;;;;;12.23;8.23;;;;;;;16.17;100.00;99443.88;5005825;28;20735;-18
2023/06/12 01:34:07;;;;;;;17.95;8.80;;;;;;;16.11;99.96;99442.25;5005891;28;20033;-18
2023/06/12 01:36:37;;;;;;;12.02;8.23;;;;;;;15.71;100.00;99446.53;5006558;28;20034;-19
2023/06/12 01:39:04;;;;;;;10.00;7.50;;;;;;;15.48;100.00;99438.69;5006210;28;20034;-18
2023/06/12 01:41:31;;;;;;;11.98;7.15;;;;;;;15.66;100.00;99458.88;5005960;28;20026;-18
2023/06/12 01:43:56;;;;;;;10.30;7.28;;;;;;;16.05;100.00;99461.06;5023484;28;20045;-18
2023/06/12 01:46:22;;;;;;;9.55;7.35;;;;;;;16.06;100.00;99451.16;5025635;28;20048;-18
2023/06/12 01:48:47;;;;;;;12.85;7.65;;;;;;;16.03;99.62;99447.09;5025886;28;20021;-19
2023/06/12 01:51:12;;;;;;;9.95;7.25;;;;;;;16.11;98.67;99448.44;5025502;28;20404;-19
2023/06/12 01:53:39;;;;;;;11.35;7.10;;;;;;;16.06;97.70;99451.16;5023326;28;20021;-18
2023/06/12 01:56:05;;;;;;;10.02;6.95;;;;;;;16.07;96.92;99453.53;5010609;28;20116;-23
2023/06/12 01:58:30;;;;;;;11.60;6.63;;;;;;;16.02;96.70;99445.50;5025951;28;20032;-19
2023/06/12 02:00:57;;;;;;;10.23;7.38;;;;;;;16.12;96.49;99451.94;5025349;28;20043;-18
2023/06/12 02:03:22;;;;;;;9.27;6.78;;;;;;;15.87;98.98;99450.84;5015971;28;20030;-18
2023/06/12 02:05:49;;;;;;;13.15;7.40;;;;;;;15.66;100.00;99439.25;5012494;28;20648;-19
2023/06/12 02:08:14;;;;;;;9.88;6.80;;;;;;;15.56;100.00;99458.06;5025338;28;20116;-18
2023/06/12 02:10:40;;;;;;;11.80;6.45;;;;;;;15.77;100.00;99448.16;5025091;28;20132;-18
2023/06/12 02:13:05;;;;;;;10.40;6.70;;;;;;;15.83;100.00;99463.22;5025196;28;20033;-18
2023/06/12 02:15:31;;;;;;;14.40;7.72;;;;;;;16.22;98.33;99454.59;5025258;28;20036;-19
2023/06/12 02:17:56;;;;;;;15.02;6.47;;;;;;;16.37;96.68;99467.25;5025480;28;20037;-19
2023/06/12 02:20:22;;;;;;;10.95;6.60;;;;;;;16.38;96.07;99469.66;5025115;28;20039;-18
2023/06/12 02:22:47;;;;;;;10.48;6.22;;;;;;;15.92;98.63;99461.63;5025310;28;20073;-18
2023/06/12 02:25:13;;;;;;;8.70;5.65;;;;;;;15.62;100.00;99473.94;5025176;28;20025;-18
2023/06/12 02:27:38;;;;;;;11.30;5.63;;;;;;;15.64;100.00;99476.34;5025108;28;20021;-18
2023/06/12 02:30:04;;;;;;;12.77;5.88;;;;;;;15.46;100.00;99474.97;5025392;28;20029;-18
2023/06/12 02:32:33;;;;;;;12.27;6.00;;;;;;;15.70;100.00;99471.81;5025089;28;20446;-19
2023/06/12 02:35:00;;;;;;;8.65;5.75;;;;;;;16.01;99.63;99460.00;5025037;28;20413;-19
2023/06/12 02:37:27;;;;;;;12.18;6.30;;;;;;;16.06;97.42;99462.72;5025261;28;20033;-19
2023/06/12 02:39:53;;;;;;;14.52;6.40;;;;;;;15.99;97.65;99462.16;5024940;28;20041;-18
2023/06/12 02:42:18;;;;;;;12.82;6.75;;;;;;;16.10;96.06;99468.34;5027668;28;20139;-18
2023/06/12 02:44:44;;;;;;;9.52;5.97;;;;;;;15.88;96.83;99473.19;5029021;28;20098;-18
2023/06/12 02:47:09;;;;;;;12.25;6.20;;;;;;;15.78;96.74;99479.38;5028894;28;20500;-18
2023/06/12 02:49:35;;;;;;;15.38;7.20;;;;;;;15.77;96.45;99480.44;5029124;28;20423;-21
2023/06/12 02:52:01;;;;;;;19.52;7.20;;;;;;;15.81;96.12;99489.56;5028989;28;20466;-18
2023/06/12 02:54:27;;;;;;;13.65;6.72;;;;;;;15.80;97.80;99479.91;5028698;28;20025;-19
2023/06/12 02:56:53;;;;;;;11.98;6.15;;;;;;;15.65;99.35;99491.41;5024163;28;20040;-18
2023/06/12 02:59:21;;;;;;;13.25;5.93;;;;;;;15.54;99.89;99495.94;5018617;28;20026;-19
2023/06/12 03:01:47;;;;;;;8.95;5.80;;;;;;;15.77;98.96;99496.56;5014194;28;20105;-18
2023/06/12 03:04:15;;;;;;;13.85;6.40;;;;;;;15.80;98.41;99491.47;5028343;28;20120;-18
2023/06/12 03:06:43;;;;;;;16.80;6.22;;;;;;;15.59;99.42;99489.78;5028386;28;20042;-19
2023/06/12 03:09:09;;;;;;;12.93;6.50;;;;;;;16.14;96.80;99499.03;5028358;28;20029;-18
2023/06/12 03:11:35;;;;;;;18.17;6.80;;;;;;;15.97;97.00;99501.94;5028963;28;20032;-22
2023/06/12 03:14:01;;;;;;;12.38;6.43;;;;;;;15.85;97.09;99509.47;5028704;28;20140;-18
2023/06/12 03:16:27;;;;;;;15.02;7.07;;;;;;;16.02;96.19;99510.03;5028575;28;20104;-18
2023/06/12 03:18:53;;;;;;;12.40;6.18;;;;;;;15.66;99.60;99511.84;5028322;28;20486;-18
2023/06/12 03:21:18;;;;;;;9.43;6.95;;;;;;;15.45;100.00;99521.75;5028058;28;20121;-18
2023/06/12 03:23:44;;;;;;;12.00;6.70;;;;;;;15.64;100.00;99503.22;5028286;28;20029;-18
2023/06/12 03:26:09;;;;;;;11.70;6.53;;;;;;;15.91;100.00;99511.09;5028026;28;20013;-19
2023/06/12 03:28:35;;;;;;;15.85;6.75;;;;;;;15.98;100.00;99508.97;5028415;28;20037;-18
2023/06/12 03:31:00;;;;;;;11.82;6.53;;;;;;;15.87;100.00;99501.94;5027883;28;20091;-19
2023/06/12 03:33:26;;;;;;;11.13;6.30;;;;;;;16.19;99.68;99519.72;5028209;28;20029;-19
2023/06/12 03:35:52;;;;;;;14.27;6.10;;;;;;;16.35;99.05;99518.66;5027984;28;20025;-19
2023/06/12 03:38:18;;;;;;;18.42;7.05;;;;;;;16.18;100.00;99512.72;5028067;28;20084;-18
2023/06/12 03:40:43;;;;;;;14.55;6.38;;;;;;;16.33;99.72;99510.03;5028047;28;20032;-19
2023/06/12 03:43:09;;;;;;;12.75;5.88;;;;;;;16.06;100.00;99516.50;5027795;28;20134;-18
2023/06/12 03:45:34;;;;;;;17.00;6.90;;;;;;;15.99;100.00;99526.69;5028228;28;20017;-18
2023/06/12 03:48:00;;;;;;;16.55;6.93;;;;;;;15.96;100.00;99526.44;5027850;28;20100;-19
2023/06/12 03:50:25;;;;;;;13.27;6.90;;;;;;;16.05;100.00;99514.88;5028185;28;20482;-18
2023/06/12 03:52:51;;;;;;;11.95;6.65;;;;;;;16.62;98.85;99498.69;5026443;28;20040;-18
2023/06/12 03:55:16;;;;;;;14.13;7.25;;;;;;;16.76;98.25;99518.56;5027669;28;20156;-19
2023/06/12 03:57:43;;;;;;;13.00;6.68;;;;;;;16.30;100.00;99499.00;5018959;28;20021;-19
2023/06/12 04:00:09;;;;;;;11.25;7.20;;;;;;;16.37;100.00;99513.78;5017981;28;20033;-19
2023/06/12 04:02:36;;;;;;;15.93;7.68;;;;;;;16.38;100.00;99504.63;5027672;28;20026;-18
2023/06/12 04:05:02;;;;;;;18.10;9.00;;;;;;;16.71;99.67;99509.69;5027467;28;20030;-18
2023/06/12 04:07:28;;;;;;;13.85;8.55;;;;;;;16.85;98.58;99511.56;5021120;28;20029;-18
2023/06/12 04:09:54;;;;;;;16.60;9.63;;;;;;;16.55;100.00;99500.84;5020099;28;20078;-18
2023/06/12 04:12:20;;;;;;;12.65;8.55;;;;;;;16.77;100.00;99508.59;5027312;28;20120;-18
2023/06/12 04:14:45;;;;;;;14.13;9.75;;;;;;;16.92;99.65;99513.16;5027331;28;20076;-19
2023/06/12 04:17:11;;;;;;;15.55;9.32;;;;;;;17.15;98.85;99509.06;5027316;28;20032;-18
2023/06/12 04:19:36;;;;;;;13.40;9.68;;;;;;;17.52;97.42;99519.38;5027009;28;20032;-19
2023/06/12 04:22:02;;;;;;;19.42;9.75;;;;;;;17.51;97.28;99498.91;5027302;28;20026;-19
2023/06/12 04:24:30;;;;;;;13.60;9.38;;;;;;;17.51;99.43;99515.09;5027097;28;20412;-18
2023/06/12 04:27:00;;;;;;;;;;;;;;;17.42;100.00;99514.03;5027527;28;20025;-18
2023/06/12 04:29:27;;;;;;;12.88;8.30;;;;;;;17.58;98.00;99512.88;5026931;28;20331;-19
2023/06/12 04:31:54;;;;;;;10.13;8.90;;;;;;;17.49;98.49;99514.56;5027005;28;20076;-18
2023/06/12 04:34:20;;;;;;;13.60;8.57;;;;;;;17.90;96.55;99519.72;5026817;28;20032;-24
2023/06/12 04:36:46;;;;;;;12.98;8.77;;;;;;;18.12;95.84;99521.97;5026726;28;20033;-20
2023/06/12 04:39:13;;;;;;;14.30;9.48;;;;;;;18.47;94.11;99526.28;5027123;28;20033;-18
2023/06/12 04:41:40;;;;;;;11.63;8.60;;;;;;;18.43;93.76;99522.53;5026815;28;20025;-18
2023/06/12 04:44:06;;;;;;;12.18;8.63;;;;;;;18.34;94.40;99518.81;5026957;28;20061;-18
2023/06/12 04:46:32;;;;;;;14.98;9.43;;;;;;;18.39;94.35;99526.09;5026828;28;20131;-22
2023/06/12 04:48:59;;;;;;;16.02;10.27;;;;;;;18.22;96.58;99532.69;5026812;28;20025;-22
2023/06/12 04:51:24;;;;;;;20.38;10.50;;;;;;;18.43;96.55;99527.13;5026634;28;20063;-19
2023/06/12 04:53:53;;;;;;;14.98;10.18;;;;;;;18.68;93.82;99531.47;5023438;28;20112;-17
2023/06/12 04:56:22;;;;;;;13.18;10.98;;;;;;;18.69;93.32;99535.78;4997945;28;20036;-18
2023/06/12 04:58:49;;;;;;;15.27;11.38;;;;;;;18.87;93.59;99528.88;5012812;28;20055;-18
2023/06/12 05:01:19;;;;;;;13.63;10.40;;;;;;;18.80;95.12;99531.13;4987187;28;20528;-19
2023/06/12 05:03:45;;;;;;;13.35;10.82;;;;;;;18.82;95.13;99516.22;4992238;28;20026;-19
2023/06/12 05:06:10;;;;;;;15.45;11.75;;;;;;;19.09;94.75;99536.47;5015578;28;20101;-18
2023/06/12 05:08:37;;;;;;;13.25;10.82;;;;;;;19.16;94.59;99528.78;5026468;28;20120;-18
2023/06/12 05:11:03;;;;;;;16.30;11.85;;;;;;;19.24;93.61;99536.28;5020346;28;20048;-18
2023/06/12 05:13:29;;;;;;;14.98;10.65;;;;;;;19.47;93.72;99523.00;5020018;28;20040;-19
2023/06/12 05:15:54;;;;;;;14.55;11.70;;;;;;;19.63;92.65;99532.50;5026151;28;20029;-18
2023/06/12 05:18:20;;;;;;;12.35;10.82;;;;;;;19.70;92.55;99526.75;5026171;28;20028;-18
2023/06/12 05:20:45;;;;;;;16.05;11.02;;;;;;;19.95;89.75;99528.31;5026056;28;20083;-19
2023/06/12 05:23:11;;;;;;;15.38;11.10;;;;;;;19.87;90.21;99542.50;5026311;28;20536;-19
2023/06/12 05:25:36;;;;;;;13.13;11.00;;;;;;;20.05;89.81;99543.59;5026018;28;20072;-18
2023/06/12 05:28:03;;;;;;;14.65;10.88;;;;;;;20.13;89.39;99536.72;5025995;28;20439;-18
2023/06/12 05:30:28;;;;;;;12.82;10.90;;;;;;;20.27;88.59;99538.34;5025784;28;20148;-18
2023/06/12 05:32:54;;;;;;;13.43;10.48;;;;;;;20.48;87.55;99544.22;5026261;28;20022;-18
2023/06/12 05:35:20;;;;;;;16.25;10.88;;;;;;;20.36;86.57;99549.31;5026052;28;20057;-19
2023/06/12 05:37:45;;;;;;;16.48;11.10;;;;;;;20.54;85.59;99550.34;5025905;28;20071;-19
2023/06/12 05:40:13;;;;;;;16.90;10.88;;;;;;;20.31;87.35;99551.28;5025808;28;20439;-20
2023/06/12 05:42:38;;;;;;;11.67;10.33;;;;;;;20.66;85.31;99553.44;5025720;28;20042;-19
2023/06/12 05:45:05;;;;;;;12.43;10.27;;;;;;;20.84;83.91;99549.03;5025985;28;20275;-19
2023/06/12 05:47:30;;;;;;;11.45;10.25;;;;;;;20.98;82.02;99532.75;5025553;28;20091;-19
2023/06/12 05:49:56;;;;;;;13.13;9.50;;;;;;;20.92;82.92;99549.44;4997903;28;20033;-18
2023/06/12 05:52:21;;;;;;;12.73;10.13;;;;;;;21.08;84.85;99553.44;5016863;28;20519;-19
2023/06/12 05:54:47;;;;;;;11.75;8.63;;;;;;;21.21;80.72;99547.25;5011974;28;20018;-18
2023/06/12 05:57:14;;;;;;;11.82;7.68;;;;;;;21.37;78.92;99544.19;5018860;28;20513;-18
2023/06/12 05:59:39;;;;;;;13.38;8.43;;;;;;;21.50;78.65;99548.84;5007413;28;20030;-19
2023/06/12 06:02:05;;;;;;;9.48;6.95;;;;;;;21.83;75.65;99551.38;5010838;28;20033;-19
2023/06/12 06:04:30;;;;;;;12.10;7.30;;;;;;;22.06;73.70;99555.69;5016930;28;20929;-19
2023/06/12 06:06:56;;;;;;;11.25;7.20;;;;;;;21.99;75.14;99560.78;5025598;28;20711;-19
2023/06/12 06:09:21;;;;;;;19.27;9.02;;;;;;;22.07;75.77;99549.19;5025194;28;20095;-18
2023/06/12 06:11:47;;;;;;;10.88;7.35;;;;;;;22.34;73.98;99554.81;5025543;28;20494;-18
2023/06/12 06:14:12;;;;;;;11.32;7.82;;;;;;;22.40;74.43;99559.81;5025167;28;20025;-20
2023/06/12 06:16:38;;;;;;;15.30;12.02;;;;;;;22.50;74.66;99564.19;5025186;28;20037;-18
2023/06/12 06:19:03;;;;;;;19.63;9.60;;;;;;;22.60;74.42;99563.94;5025489;28;20423;-19
2023/06/12 06:21:30;;;;;;;11.80;8.15;;;;;;;22.74;74.47;99555.69;5025307;28;20050;-19
2023/06/12 06:23:59;;;;;;;82.30;17.33;;;;;;;22.84;73.98;99560.03;5025391;28;20040;-19
2023/06/12 06:26:25;;;;;;;14.68;8.05;;;;;;;23.03;73.33;99559.84;5025029;28;20037;-19
2023/06/12 06:28:50;;;;;;;10.95;7.60;;;;;;;22.99;72.46;99567.00;5025466;28;20026;-19
2023/06/12 06:31:16;;;;;;;10.85;6.97;;;;;;;23.07;70.46;99568.97;5025027;28;20395;-18
2023/06/12 06:33:41;;;;;;;10.85;7.15;;;;;;;23.43;68.19;99570.69;5025444;28;20112;-18
2023/06/12 06:36:07;;;;;;;9.38;6.22;;;;;;;23.49;65.61;99566.69;5024913;28;20041;-18
2023/06/12 06:38:33;;;;;;;12.45;6.97;;;;;;;23.61;65.66;99563.34;5014271;28;20121;-18
2023/06/12 06:40:59;;;;;;;11.90;6.63;;;;;;;23.90;66.90;99564.69;5005123;28;20025;-19
2023/06/12 06:43:24;;;;;;;129.90;20.88;;;;;;;23.90;65.90;99560.03;5004966;28;20072;-18
2023/06/12 06:45:50;;;;;;;12.98;6.80;;;;;;;23.78;64.53;99574.31;5005260;28;20030;-19
2023/06/12 06:48:15;;;;;;;14.32;6.70;;;;;;;23.82;65.18;99571.72;5004996;28;20030;-18
2023/06/12 06:50:41;;;;;;;8.52;5.85;;;;;;;24.12;62.79;99569.16;5004985;28;20129;-18
2023/06/12 06:53:06;;;;;;;9.63;6.03;;;;;;;24.44;63.08;99571.38;5005183;28;20052;-18
2023/06/12 06:55:33;;;;;;;62.35;12.35;;;;;;;24.12;63.50;99571.91;5004437;28;20045;-19
2023/06/12 06:57:58;;;;;;;10.90;5.97;;;;;;;24.39;63.21;99574.25;5004233;28;20029;-18
2023/06/12 07:00:26;;;;;;;8.73;5.55;;;;;;;24.16;64.33;99573.66;5002969;28;20088;-18
2023/06/12 07:02:51;;;;;;;11.60;6.32;;;;;;;24.28;62.05;99570.28;5004805;28;20030;-19
2023/06/12 07:05:18;;;;;;;29.55;7.47;;;;;;;24.32;60.32;99565.00;5004952;28;20022;-18
2023/06/12 07:07:47;;;;;;;12.68;5.80;;;;;;;24.61;61.53;99570.56;5005661;28;20092;-18
2023/06/12 07:10:13;;;;;;;9.32;5.80;;;;;;;24.80;60.32;99563.91;5005112;28;20080;-19
2023/06/12 07:12:38;;;;;;;8.68;5.25;;;;;;;24.66;60.90;99561.41;5005576;28;20029;-19
2023/06/12 07:15:05;;;;;;;8.05;5.53;;;;;;;24.66;62.46;99564.13;5005099;28;20595;-19
2023/06/12 07:17:30;;;;;;;10.20;5.53;;;;;;;24.73;62.31;99563.63;5005198;28;20493;-19
2023/06/12 07:19:55;;;;;;;7.68;5.63;;;;;;;24.65;62.30;99557.09;5005152;28;20026;-18
2023/06/12 07:22:21;;;;;;;9.52;5.35;;;;;;;25.05;62.39;99548.59;5003762;28;20428;-18
2023/06/12 07:24:47;;;;;;;10.32;5.60;;;;;;;25.35;60.90;99552.13;5005095;28;20460;-18
2023/06/12 07:27:12;;;;;;;9.23;6.00;;;;;;;25.08;61.62;99553.38;5005863;28;20041;-24
2023/06/12 07:29:37;;;;;;;8.48;5.55;;;;;;;24.96;60.24;99545.88;5008482;28;20518;-19
2023/06/12 07:32:03;;;;;;;8.85;5.72;;;;;;;25.59;60.46;99540.59;5008274;28;20037;-19
2023/06/12 07:34:29;;;;;;;9.48;5.90;;;;;;;25.52;59.47;99551.25;5008734;28;20099;-18
2023/06/12 07:36:56;;;;;;;7.70;5.88;;;;;;;25.57;59.07;99551.03;5008253;28;20038;-18
2023/06/12 07:39:21;;;;;;;8.93;5.72;;;;;;;25.79;58.71;99549.91;5008221;28;20052;-19
2023/06/12 07:41:47;;;;;;;8.98;6.15;;;;;;;25.80;59.32;99547.97;5008167;28;20424;-19
2023/06/12 07:44:13;;;;;;;11.75;5.93;;;;;;;25.25;61.48;99550.59;5027641;28;20092;-19
2023/06/12 07:46:41;;;;;;;10.32;6.72;;;;;;;25.36;62.42;99536.56;5028327;28;20026;-18
2023/06/12 07:49:06;;;;;;;10.88;6.00;;;;;;;25.73;59.56;99531.34;5022222;28;20032;-18
2023/06/12 07:51:31;;;;;;;13.48;6.50;;;;;;;25.80;61.03;99545.25;5021456;28;20029;-18
2023/06/12 07:53:57;;;;;;;26.40;9.07;;;;;;;25.94;60.22;99556.72;5027852;28;20056;-18
2023/06/12 07:56:22;;;;;;;13.50;6.20;;;;;;;25.88;58.81;99547.09;5027671;28;20023;-19
2023/06/12 07:58:48;;;;;;;9.75;6.20;;;;;;;25.63;57.80;99546.97;5027381;28;20033;-18
2023/06/12 08:01:13;;;;;;;16.83;7.30;;;;;;;25.88;58.63;99552.56;5021226;28;20018;-19
2023/06/12 08:03:39;;;;;;;11.07;6.88;;;;;;;26.08;55.68;99561.13;5018600;28;20017;-19
2023/06/12 08:06:08;;;;;;;11.75;5.90;;;;;;;26.54;55.42;99542.81;5027774;28;20036;-18
2023/06/12 08:08:44;;;;;;;13.80;6.18;;;;;;;26.43;55.14;99556.13;5027443;28;20120;-18
2023/06/12 08:11:11;;;;;;;16.20;6.28;;;;;;;26.37;56.72;99554.72;5027465;28;20029;-18
2023/06/12 08:13:36;;;;;;;35.65;8.98;;;;;;;25.92;54.97;99553.53;5027476;28;20030;-20
2023/06/12 08:16:02;;;;;;;14.82;5.72;;;;;;;26.40;54.82;99562.28;5027531;28;20040;-18
2023/06/12 08:18:28;;;;;;;8.70;5.43;;;;;;;26.04;54.70;99556.31;5027447;28;20033;-18
2023/06/12 08:20:53;;;;;;;9.40;5.63;;;;;;;26.22;54.87;99556.97;5027228;28;20029;-18
2023/06/12 08:23:19;;;;;;;10.23;5.63;;;;;;;26.18;54.18;99545.09;5027276;28;20057;-21
2023/06/12 08:25:44;;;;;;;8.40;5.65;;;;;;;26.02;55.92;99544.94;5027302;28;20037;-24
2023/06/12 08:28:10;;;;;;;7.72;5.13;;;;;;;26.05;54.94;99547.00;5009331;28;20040;-18
2023/06/12 08:30:36;;;;;;;10.43;5.63;;;;;;;25.83;56.27;99539.13;5027133;28;20021;-19
2023/06/12 08:33:03;;;;;;;96.88;16.25;;;;;;;26.51;56.90;99535.28;5027182;28;20107;-19
2023/06/12 08:35:28;;;;;;;9.00;5.82;;;;;;;26.17;55.71;99532.56;5026829;28;20033;-20
2023/06/12 08:37:54;;;;;;;12.60;5.70;;;;;;;26.22;55.12;99531.56;5026950;28;20038;-18
2023/06/12 08:40:20;;;;;;;10.50;5.38;;;;;;;26.51;55.62;99527.09;5026084;28;20053;-19
2023/06/12 08:42:50;;;;;;;11.23;5.93;;;;;;;26.71;56.08;99523.50;5026856;28;20046;-19
2023/06/12 08:45:17;;;;;;;28.33;7.97;;;;;;;27.02;55.41;99528.41;5026735;28;20034;-19
2023/06/12 08:47:48;;;;;;;304.30;42.58;;;;;;;26.92;55.08;99511.66;5013206;28;20458;-20
2023/06/12 08:50:16;;;;;;;20.83;7.10;;;;;;;26.78;55.73;99509.25;5020803;28;20021;-18
2023/06/12 08:52:42;;;;;;;;;;;;;;;27.14;55.47;99529.56;5026963;28;20053;-19
2023/06/12 08:55:09;;;;;;;13.38;5.88;;;;;;;27.32;53.71;99519.16;5026718;28;20352;-19
2023/06/12 08:57:38;;;;;;;9.63;6.03;;;;;;;27.74;52.09;99514.16;5026536;28;20486;-19
2023/06/12 09:00:10;;;;;;;9.85;6.05;;;;;;;27.67;52.42;99513.19;5024062;28;20030;-18
2023/06/12 09:02:35;;;;;;;7.85;5.35;;;;;;;27.34;53.63;99517.72;5014480;28;20072;-18
2023/06/12 09:05:06;;;;;;;15.52;5.80;;;;;;;26.94;53.84;99498.44;5026233;28;20064;-18
2023/06/12 09:07:35;;;;;;;12.82;5.40;;;;;;;27.62;52.59;99520.50;5026306;28;20033;-20
2023/06/12 09:10:01;;;;;;;10.95;5.35;;;;;;;27.42;50.92;99514.03;5026361;28;20098;-19
2023/06/12 09:12:29;;;;;;;10.32;5.07;;;;;;;27.27;51.35;99506.53;5026315;28;20542;-18
2023/06/12 09:14:54;;;;;;;8.50;5.25;;;;;;;27.05;53.23;99502.28;5026346;28;20095;-19
2023/06/12 09:17:26;;;;;;;15.90;5.55;;;;;;;26.97;53.77;99498.56;5026484;28;20037;-19
2023/06/12 09:19:51;;;;;;;16.05;5.90;;;;;;;27.46;51.54;99508.66;5025752;28;20024;-21
2023/06/12 09:22:17;;;;;;;9.85;5.68;;;;;;;27.39;51.99;99500.22;5014450;28;20030;-19
2023/06/12 09:24:42;;;;;;;13.27;9.50;;;;;;;27.42;52.97;99497.59;5006458;28;20037;-18
2023/06/12 09:27:08;;;;;;;9.05;5.82;;;;;;;27.72;50.71;99499.22;5006404;28;20060;-18
2023/06/12 09:29:39;;;;;;;9.55;5.25;;;;;;;27.91;50.76;99498.59;5006347;28;20037;-19
2023/06/12 09:32:07;;;;;;;9.45;5.32;;;;;;;27.87;49.24;99494.97;5006151;28;20568;-19
2023/06/12 09:34:36;;;;;;;12.32;6.28;;;;;;;28.11;47.94;99496.81;5006140;28;20037;-18
2023/06/12 09:37:09;;;;;;;8.95;5.90;;;;;;;27.78;48.07;99481.41;5006085;28;20097;-18
2023/06/12 09:39:34;;;;;;;12.10;5.45;;;;;;;28.12;48.59;99485.50;5005941;28;20029;-18
2023/06/12 09:42:01;;;;;;;8.38;4.93;;;;;;;28.18;49.43;99481.34;5010109;28;20099;-18
2023/06/12 09:44:29;;;;;;;11.80;5.43;;;;;;;28.06;50.57;99478.69;5005593;28;20034;-19
2023/06/12 09:47:04;;;;;;;;;;;;;;;28.72;47.85;99477.22;5006537;28;20092;-19
2023/06/12 09:49:31;;;;;;;9.65;4.70;;;;;;;29.12;46.79;99472.69;5005671;28;20493;-18
2023/06/12 09:52:00;;;;;;;6.73;4.60;;;;;;;28.59;44.67;99481.25;5004572;28;20029;-19
2023/06/12 09:54:29;;;;;;;9.60;4.75;;;;;;;29.16;45.71;99466.13;5005731;28;20416;-19
2023/06/12 09:56:57;;;;;;;8.07;4.85;;;;;;;29.24;45.49;99470.63;5005953;28;20038;-18
2023/06/12 09:59:30;;;;;;;8.00;4.72;;;;;;;28.99;45.23;99466.47;5005506;28;20119;-19
2023/06/12 10:02:05;;;;;;;7.13;4.50;;;;;;;28.78;44.84;99467.56;5005856;28;20132;-18
2023/06/12 10:04:45;;;;;;;5.70;4.00;;;;;;;28.84;44.55;99466.16;5005557;28;20026;-19
2023/06/12 10:07:18;;;;;;;8.23;5.10;;;;;;;29.31;42.31;99463.69;5005664;28;20032;-18
2023/06/12 10:09:47;;;;;;;8.38;4.95;;;;;;;29.58;45.62;99470.13;5005819;28;20123;-26
2023/06/12 10:12:13;;;;;;;8.57;4.45;;;;;;;29.63;43.05;99461.63;5005828;28;20029;-17
2023/06/12 10:14:39;;;;;;;12.43;4.40;;;;;;;29.75;43.12;99474.41;5005706;28;20030;-19
2023/06/12 10:17:06;;;;;;;7.67;4.43;;;;;;;29.53;42.42;99462.97;5003739;28;20037;-19
2023/06/12 10:19:32;;;;;;;77.65;14.38;;;;;;;30.16;43.03;99463.78;5005116;28;20096;-19
2023/06/12 10:21:59;;;;;;;67.18;12.43;;;;;;;29.54;44.41;99472.81;5004874;28;20038;-17
2023/06/12 10:24:25;;;;;;;8.32;5.00;;;;;;;29.04;44.96;99466.22;4997610;28;20699;-19
2023/06/12 10:26:56;;;;;;;31.75;7.30;;;;;;;29.72;43.30;99458.66;5004945;28;20627;-19
2023/06/12 10:29:31;;;;;;;18.70;5.53;;;;;;;29.97;42.89;99465.44;5005475;28;20037;-18
2023/06/12 10:32:04;;;;;;;9.63;5.15;;;;;;;30.22;42.14;99443.13;5005487;28;20199;-18
2023/06/12 10:34:35;;;;;;;12.25;4.80;;;;;;;30.22;41.54;99462.38;5005550;28;20033;-19
2023/06/12 10:37:21;;;;;;;29.35;7.65;;;;;;;30.92;41.45;99458.41;5005296;28;20101;-19
2023/06/12 10:39:47;;;;;;;11.43;5.10;;;;;;;30.80;41.59;99456.63;5005596;28;20045;-18
2023/06/12 10:42:13;;;;;;;15.35;5.60;;;;;;;30.46;42.26;99446.66;5008424;28;20053;-18
2023/06/12 10:44:46;;;;;;;13.85;6.30;;;;;;;30.77;41.08;99451.88;5025097;28;20038;-19
2023/06/12 10:47:21;;;;;;;11.35;5.68;;;;;;;29.91;42.02;99455.88;5024929;28;20021;-20
2023/06/12 10:50:04;;;;;;;20.25;6.45;;;;;;;30.01;43.31;99449.00;5025260;28;20034;-19
2023/06/12 10:52:30;;;;;;;15.48;6.07;;;;;;;30.30;41.35;99438.53;5024851;28;20061;-19
2023/06/12 10:55:17;;;;;;;7.75;5.35;;;;;;;31.01;40.85;99439.66;5025163;28;20060;-19
2023/06/12 10:58:03;;;;;;;8.48;5.15;;;;;;;30.90;40.24;99421.44;5024921;28;20032;-19
2023/06/12 11:00:32;;;;;;;9.07;5.07;;;;;;;30.84;40.33;99435.47;5024900;28;20078;-18
2023/06/12 11:03:02;;;;;;;9.52;5.35;;;;;;;30.95;40.87;99440.38;5026710;28;20029;-19
2023/06/12 11:05:31;;;;;;;7.55;5.22;;;;;;;30.77;39.58;99429.88;5014847;28;20424;-19
2023/06/12 11:07:59;;;;;;;10.15;5.35;;;;;;;30.26;41.21;99416.47;5027942;28;20546;-18
2023/06/12 11:10:26;;;;;;;7.95;5.10;;;;;;;30.35;41.98;99417.03;5028660;28;20135;-20
2023/06/12 11:12:52;;;;;;;;;;;;;;;30.90;41.63;99421.44;5025888;28;20544;-20
2023/06/12 11:15:18;;;;;;;7.82;5.00;;;;;;;31.22;40.95;99417.13;5018430;28;20016;-18
2023/06/12 11:17:44;;;;;;;9.43;4.90;;;;;;;30.80;40.62;99412.59;5022647;28;20029;-18
2023/06/12 11:20:10;;;;;;;8.65;5.80;;;;;;;30.67;40.27;99408.50;5021842;28;20061;-18
2023/06/12 11:22:36;;;;;;;11.82;6.63;;;;;;;30.92;40.35;99405.31;5020590;28;20025;-19
2023/06/12 11:25:03;;;;;;;9.70;5.53;;;;;;;31.01;39.42;99400.31;5028116;28;20033;-19
2023/06/12 11:27:30;;;;;;;10.05;5.88;;;;;;;31.31;41.49;99403.06;5025208;28;20022;-22